sensor_id;sensor_type;location;lat;lon;timestamp;pressure;altitude;pressure_sealevel;temperature;humidity
17060;BME280;8646;49.716;9.266;2023-03-18T00:02:48;99831.78;;;8.64;86.63
17060;BME280;8646;49.716;9.266;2023-03-18T00:05:51;99835.31;;;8.66;87.40
17060;BME280;8646;49.716;9.266;2023-03-18T00:08:58;99831.78;;;8.64;87.39
17060;BME280;8646;49.716;9.266;2023-03-18T00:12:02;99845.53;;;8.58;87.75
17060;BME280;8646;49.716;9.266;2023-03-18T00:15:07;99849.44;;;8.51;87.38
17060;BME280;8646;49.716;9.266;2023-03-18T00:18:10;99855.00;;;8.47;87.52
17060;BME280;8646;49.716;9.266;2023-03-18T00:21:13;99855.06;;;8.45;87.47
17060;BME280;8646;49.716;9.266;2023-03-18T00:24:21;99864.25;;;8.41;87.85
17060;BME280;8646;49.716;9.266;2023-03-18T00:27:24;99866.16;;;8.37;87.79
17060;BME280;8646;49.716;9.266;2023-03-18T00:30:26;99866.22;;;8.36;88.05
17060;BME280;8646;49.716;9.266;2023-03-18T00:33:31;99875.97;;;8.40;87.79
17060;BME280;8646;49.716;9.266;2023-03-18T00:36:34;99873.16;;;8.43;87.83
17060;BME280;8646;49.716;9.266;2023-03-18T00:39:39;99875.69;;;8.46;87.67
17060;BME280;8646;49.716;9.266;2023-03-18T00:42:45;99881.09;;;8.46;87.28
17060;BME280;8646;49.716;9.266;2023-03-18T00:45:51;99882.91;;;8.46;87.45
17060;BME280;8646;49.716;9.266;2023-03-18T00:48:57;99884.66;;;8.47;87.14
17060;BME280;8646;49.716;9.266;2023-03-18T00:52:02;99884.94;;;8.40;87.61
17060;BME280;8646;49.716;9.266;2023-03-18T00:55:07;99875.28;;;8.35;88.06
17060;BME280;8646;49.716;9.266;2023-03-18T00:58:11;99879.06;;;8.29;88.30
17060;BME280;8646;49.716;9.266;2023-03-18T01:01:14;99880.69;;;8.35;88.43
17060;BME280;8646;49.716;9.266;2023-03-18T01:04:18;99874.97;;;8.43;88.24
17060;BME280;8646;49.716;9.266;2023-03-18T01:07:22;99886.63;;;8.43;87.96
17060;BME280;8646;49.716;9.266;2023-03-18T01:10:27;99891.88;;;8.46;87.81
17060;BME280;8646;49.716;9.266;2023-03-18T01:13:31;99886.31;;;8.51;88.02
17060;BME280;8646;49.716;9.266;2023-03-18T01:16:36;99884.25;;;8.57;87.69
17060;BME280;8646;49.716;9.266;2023-03-18T01:19:39;99884.19;;;8.59;88.03
17060;BME280;8646;49.716;9.266;2023-03-18T01:22:42;99885.84;;;8.61;87.59
17060;BME280;8646;49.716;9.266;2023-03-18T01:25:47;99884.84;;;8.64;87.75
17060;BME280;8646;49.716;9.266;2023-03-18T01:28:53;99885.41;;;8.72;87.50
17060;BME280;8646;49.716;9.266;2023-03-18T01:31:57;99891.47;;;8.77;87.76
17060;BME280;8646;49.716;9.266;2023-03-18T01:35:03;99881.34;;;8.84;87.70
17060;BME280;8646;49.716;9.266;2023-03-18T01:38:06;99877.47;;;8.89;87.51
17060;BME280;8646;49.716;9.266;2023-03-18T01:41:11;99886.59;;;8.87;87.42
17060;BME280;8646;49.716;9.266;2023-03-18T01:44:15;99888.72;;;8.78;87.95
17060;BME280;8646;49.716;9.266;2023-03-18T01:47:18;99887.84;;;8.78;88.00
17060;BME280;8646;49.716;9.266;2023-03-18T01:50:25;99882.34;;;8.81;88.01
17060;BME280;8646;49.716;9.266;2023-03-18T01:53:39;99890.59;;;8.76;87.83
17060;BME280;8646;49.716;9.266;2023-03-18T01:56:51;99892.31;;;8.79;87.61
17060;BME280;8646;49.716;9.266;2023-03-18T01:59:56;99894.81;;;8.84;87.49
17060;BME280;8646;49.716;9.266;2023-03-18T02:02:59;99891.31;;;8.82;87.67
17060;BME280;8646;49.716;9.266;2023-03-18T02:06:02;99886.59;;;8.87;87.93
17060;BME280;8646;49.716;9.266;2023-03-18T02:09:06;99881.94;;;8.90;87.74
17060;BME280;8646;49.716;9.266;2023-03-18T02:12:11;99871.66;;;8.78;87.38
17060;BME280;8646;49.716;9.266;2023-03-18T02:15:20;99884.69;;;8.89;87.47
17060;BME280;8646;49.716;9.266;2023-03-18T02:18:27;99882.81;;;8.91;87.67
17060;BME280;8646;49.716;9.266;2023-03-18T02:21:39;99885.44;;;8.92;87.55
17060;BME280;8646;49.716;9.266;2023-03-18T02:24:50;99892.59;;;8.93;87.13
17060;BME280;8646;49.716;9.266;2023-03-18T02:28:03;99886.31;;;8.93;86.85
17060;BME280;8646;49.716;9.266;2023-03-18T02:31:10;99883.81;;;8.88;87.23
17060;BME280;8646;49.716;9.266;2023-03-18T02:34:15;99889.34;;;8.85;87.46
17060;BME280;8646;49.716;9.266;2023-03-18T02:37:18;99878.47;;;8.87;87.11
17060;BME280;8646;49.716;9.266;2023-03-18T02:40:26;99887.53;;;8.86;87.20
17060;BME280;8646;49.716;9.266;2023-03-18T02:43:33;99892.50;;;8.74;87.14
17060;BME280;8646;49.716;9.266;2023-03-18T02:46:50;99898.28;;;8.65;86.98
17060;BME280;8646;49.716;9.266;2023-03-18T02:49:55;99897.34;;;8.66;87.57
17060;BME280;8646;49.716;9.266;2023-03-18T02:53:03;99897.56;;;8.60;87.60
17060;BME280;8646;49.716;9.266;2023-03-18T02:56:06;99896.78;;;8.58;87.88
17060;BME280;8646;49.716;9.266;2023-03-18T02:59:11;99903.22;;;8.54;87.96
17060;BME280;8646;49.716;9.266;2023-03-18T03:02:40;99902.28;;;8.55;87.79
17060;BME280;8646;49.716;9.266;2023-03-18T03:05:43;99897.56;;;8.60;88.21
17060;BME280;8646;49.716;9.266;2023-03-18T03:08:46;99900.97;;;8.65;88.37
17060;BME280;8646;49.716;9.266;2023-03-18T03:11:52;99908.94;;;8.68;88.38
17060;BME280;8646;49.716;9.266;2023-03-18T03:14:56;99909.91;;;8.67;88.13
17060;BME280;8646;49.716;9.266;2023-03-18T03:18:01;99905.22;;;8.71;88.26
17060;BME280;8646;49.716;9.266;2023-03-18T03:21:05;99906.13;;;8.71;88.24
17060;BME280;8646;49.716;9.266;2023-03-18T03:24:08;99916.97;;;8.70;88.49
17060;BME280;8646;49.716;9.266;2023-03-18T03:27:26;99909.69;;;8.72;88.23
17060;BME280;8646;49.716;9.266;2023-03-18T03:30:33;99904.34;;;8.70;88.19
17060;BME280;8646;49.716;9.266;2023-03-18T03:33:37;99914.78;;;8.79;88.36
17060;BME280;8646;49.716;9.266;2023-03-18T03:36:41;99911.25;;;8.77;88.13
17060;BME280;8646;49.716;9.266;2023-03-18T03:39:46;99922.03;;;8.77;88.27
17060;BME280;8646;49.716;9.266;2023-03-18T03:42:49;99913.94;;;8.77;88.26
17060;BME280;8646;49.716;9.266;2023-03-18T03:45:53;99917.34;;;8.83;88.47
17060;BME280;8646;49.716;9.266;2023-03-18T03:49:10;99919.97;;;8.84;88.12
17060;BME280;8646;49.716;9.266;2023-03-18T03:52:13;99919.09;;;8.84;88.32
17060;BME280;8646;49.716;9.266;2023-03-18T03:55:18;99922.47;;;8.89;88.18
17060;BME280;8646;49.716;9.266;2023-03-18T03:58:21;99928.81;;;8.88;88.37
17060;BME280;8646;49.716;9.266;2023-03-18T04:01:25;99932.34;;;8.90;88.12
17060;BME280;8646;49.716;9.266;2023-03-18T04:04:29;99931.50;;;8.88;88.06
17060;BME280;8646;49.716;9.266;2023-03-18T04:07:32;99935.91;;;8.90;88.45
17060;BME280;8646;49.716;9.266;2023-03-18T04:10:38;99924.97;;;8.93;88.01
17060;BME280;8646;49.716;9.266;2023-03-18T04:13:41;99931.25;;;8.94;88.50
17060;BME280;8646;49.716;9.266;2023-03-18T04:16:45;99923.31;;;8.91;89.08
17060;BME280;8646;49.716;9.266;2023-03-18T04:19:48;99936.34;;;8.79;89.38
17060;BME280;8646;49.716;9.266;2023-03-18T04:22:50;99928.53;;;8.73;89.70
17060;BME280;8646;49.716;9.266;2023-03-18T04:25:53;99941.38;;;8.67;89.97
17060;BME280;8646;49.716;9.266;2023-03-18T04:28:56;99951.28;;;8.66;89.81
17060;BME280;8646;49.716;9.266;2023-03-18T04:32:00;99942.94;;;8.72;89.86
17060;BME280;8646;49.716;9.266;2023-03-18T04:35:04;99933.84;;;8.75;89.31
17060;BME280;8646;49.716;9.266;2023-03-18T04:38:07;99933.53;;;8.83;89.25
17060;BME280;8646;49.716;9.266;2023-03-18T04:41:10;99940.53;;;8.87;89.50
17060;BME280;8646;49.716;9.266;2023-03-18T04:44:12;99939.00;;;8.81;89.60
17060;BME280;8646;49.716;9.266;2023-03-18T04:47:16;99916.91;;;8.71;89.77
17060;BME280;8646;49.716;9.266;2023-03-18T04:50:20;99953.41;;;8.80;90.24
17060;BME280;8646;49.716;9.266;2023-03-18T04:53:26;99953.75;;;8.72;90.26
17060;BME280;8646;49.716;9.266;2023-03-18T04:56:29;99945.63;;;8.72;90.06
17060;BME280;8646;49.716;9.266;2023-03-18T04:59:34;99943.81;;;8.73;90.11
17060;BME280;8646;49.716;9.266;2023-03-18T05:02:39;99933.34;;;8.65;90.01
17060;BME280;8646;49.716;9.266;2023-03-18T05:05:42;99944.34;;;8.83;89.94
17060;BME280;8646;49.716;9.266;2023-03-18T05:08:44;99939.59;;;8.88;89.83
17060;BME280;8646;49.716;9.266;2023-03-18T05:11:49;99938.09;;;8.80;89.92
17060;BME280;8646;49.716;9.266;2023-03-18T05:14:52;99937.22;;;8.80;90.11
17060;BME280;8646;49.716;9.266;2023-03-18T05:17:57;99929.19;;;8.78;90.14
17060;BME280;8646;49.716;9.266;2023-03-18T05:21:02;99923.38;;;8.67;90.17
17060;BME280;8646;49.716;9.266;2023-03-18T05:24:07;99941.75;;;8.79;90.01
17060;BME280;8646;49.716;9.266;2023-03-18T05:27:16;99942.13;;;8.70;90.22
17060;BME280;8646;49.716;9.266;2023-03-18T05:30:20;99939.56;;;8.67;90.60
17060;BME280;8646;49.716;9.266;2023-03-18T05:33:25;99934.28;;;8.64;90.98
17060;BME280;8646;49.716;9.266;2023-03-18T05:36:27;99931.47;;;8.67;90.35
17060;BME280;8646;49.716;9.266;2023-03-18T05:39:32;99928.38;;;8.76;90.30
17060;BME280;8646;49.716;9.266;2023-03-18T05:42:35;99932.03;;;8.75;90.14
17060;BME280;8646;49.716;9.266;2023-03-18T05:45:55;99930.91;;;8.81;90.42
17060;BME280;8646;49.716;9.266;2023-03-18T05:49:00;99922.84;;;8.79;90.20
17060;BME280;8646;49.716;9.266;2023-03-18T05:52:05;99929.91;;;8.84;90.16
17060;BME280;8646;49.716;9.266;2023-03-18T05:55:11;99933.66;;;8.79;90.43
17060;BME280;8646;49.716;9.266;2023-03-18T05:58:14;99940.34;;;8.69;90.68
17060;BME280;8646;49.716;9.266;2023-03-18T06:01:17;99939.06;;;8.79;91.02
17060;BME280;8646;49.716;9.266;2023-03-18T06:04:22;99942.63;;;8.80;91.00
17060;BME280;8646;49.716;9.266;2023-03-18T06:07:25;99941.31;;;8.68;91.66
17060;BME280;8646;49.716;9.266;2023-03-18T06:10:31;99950.16;;;8.72;91.20
17060;BME280;8646;49.716;9.266;2023-03-18T06:13:34;99950.59;;;8.83;91.05
17060;BME280;8646;49.716;9.266;2023-03-18T06:16:37;99955.91;;;8.85;91.44
17060;BME280;8646;49.716;9.266;2023-03-18T06:19:41;99955.13;;;8.83;91.50
17060;BME280;8646;49.716;9.266;2023-03-18T06:22:48;99952.47;;;8.81;91.69
17060;BME280;8646;49.716;9.266;2023-03-18T06:25:51;99958.38;;;8.91;91.38
17060;BME280;8646;49.716;9.266;2023-03-18T06:28:56;99954.75;;;8.92;91.01
17060;BME280;8646;49.716;9.266;2023-03-18T06:32:01;99958.22;;;8.94;91.03
17060;BME280;8646;49.716;9.266;2023-03-18T06:35:09;99953.91;;;8.90;91.12
17060;BME280;8646;49.716;9.266;2023-03-18T06:38:12;99959.31;;;8.90;91.31
17060;BME280;8646;49.716;9.266;2023-03-18T06:41:18;99955.22;;;9.01;90.64
17060;BME280;8646;49.716;9.266;2023-03-18T06:44:22;99953.53;;;8.99;90.71
17060;BME280;8646;49.716;9.266;2023-03-18T06:47:24;99959.88;;;8.98;90.79
17060;BME280;8646;49.716;9.266;2023-03-18T06:50:35;99967.91;;;8.99;90.96
17060;BME280;8646;49.716;9.266;2023-03-18T06:53:39;99957.78;;;9.04;90.70
17060;BME280;8646;49.716;9.266;2023-03-18T06:56:43;99967.50;;;9.08;90.30
17060;BME280;8646;49.716;9.266;2023-03-18T06:59:47;99959.78;;;9.21;89.99
17060;BME280;8646;49.716;9.266;2023-03-18T07:02:50;99967.66;;;9.26;89.46
17060;BME280;8646;49.716;9.266;2023-03-18T07:05:54;99969.63;;;9.22;90.15
17060;BME280;8646;49.716;9.266;2023-03-18T07:08:59;99970.38;;;9.26;89.96
17060;BME280;8646;49.716;9.266;2023-03-18T07:12:11;99967.97;;;9.40;89.76
17060;BME280;8646;49.716;9.266;2023-03-18T07:15:15;99950.50;;;9.48;89.10
17060;BME280;8646;49.716;9.266;2023-03-18T07:18:20;99958.44;;;9.72;88.55
17060;BME280;8646;49.716;9.266;2023-03-18T07:21:25;99957.59;;;9.90;87.57
17060;BME280;8646;49.716;9.266;2023-03-18T07:24:29;99957.03;;;10.02;87.03
17060;BME280;8646;49.716;9.266;2023-03-18T07:27:32;99955.16;;;10.04;86.66
17060;BME280;8646;49.716;9.266;2023-03-18T07:30:38;99958.50;;;10.09;86.89
17060;BME280;8646;49.716;9.266;2023-03-18T07:33:41;99958.13;;;10.18;86.65
17060;BME280;8646;49.716;9.266;2023-03-18T07:36:46;99958.69;;;10.25;86.19
17060;BME280;8646;49.716;9.266;2023-03-18T07:39:49;99961.22;;;10.29;86.03
17060;BME280;8646;49.716;9.266;2023-03-18T07:42:56;99958.50;;;10.29;86.60
17060;BME280;8646;49.716;9.266;2023-03-18T07:45:59;99966.88;;;10.23;86.79
17060;BME280;8646;49.716;9.266;2023-03-18T07:49:02;99974.56;;;10.32;85.82
17060;BME280;8646;49.716;9.266;2023-03-18T07:52:07;99979.84;;;10.36;86.36
17060;BME280;8646;49.716;9.266;2023-03-18T07:55:11;99981.94;;;10.48;86.59
17060;BME280;8646;49.716;9.266;2023-03-18T07:58:14;99982.38;;;10.76;85.33
17060;BME280;8646;49.716;9.266;2023-03-18T08:01:16;99978.06;;;10.91;83.97
17060;BME280;8646;49.716;9.266;2023-03-18T08:04:21;99977.34;;;11.04;82.57
17060;BME280;8646;49.716;9.266;2023-03-18T08:07:30;99984.06;;;11.15;82.13
17060;BME280;8646;49.716;9.266;2023-03-18T08:10:33;99980.09;;;11.22;82.01
17060;BME280;8646;49.716;9.266;2023-03-18T08:13:37;99970.56;;;11.32;81.37
17060;BME280;8646;49.716;9.266;2023-03-18T08:16:41;99975.66;;;11.38;81.52
17060;BME280;8646;49.716;9.266;2023-03-18T08:19:44;99977.06;;;11.45;81.47
17060;BME280;8646;49.716;9.266;2023-03-18T08:22:49;99973.75;;;11.57;81.28
17060;BME280;8646;49.716;9.266;2023-03-18T08:25:51;99969.50;;;11.69;80.67
17060;BME280;8646;49.716;9.266;2023-03-18T08:28:54;99968.09;;;11.79;80.20
17060;BME280;8646;49.716;9.266;2023-03-18T08:31:57;99965.63;;;11.92;79.71
17060;BME280;8646;49.716;9.266;2023-03-18T08:35:01;99963.38;;;12.00;79.96
17060;BME280;8646;49.716;9.266;2023-03-18T08:38:07;99953.53;;;12.14;78.63
17060;BME280;8646;49.716;9.266;2023-03-18T08:41:10;99971.06;;;12.40;78.37
17060;BME280;8646;49.716;9.266;2023-03-18T08:44:13;99948.50;;;12.55;75.54
17060;BME280;8646;49.716;9.266;2023-03-18T08:47:15;99958.72;;;12.66;74.86
17060;BME280;8646;49.716;9.266;2023-03-18T08:50:18;99952.63;;;12.78;74.59
17060;BME280;8646;49.716;9.266;2023-03-18T08:53:22;99952.97;;;12.88;74.06
17060;BME280;8646;49.716;9.266;2023-03-18T08:56:25;99959.41;;;13.01;74.40
17060;BME280;8646;49.716;9.266;2023-03-18T08:59:28;99950.59;;;13.13;73.47
17060;BME280;8646;49.716;9.266;2023-03-18T09:02:34;99936.66;;;13.19;72.28
17060;BME280;8646;49.716;9.266;2023-03-18T09:05:37;99946.97;;;13.28;72.09
17060;BME280;8646;49.716;9.266;2023-03-18T09:08:42;99926.59;;;13.35;70.45
17060;BME280;8646;49.716;9.266;2023-03-18T09:11:45;99932.06;;;13.50;69.39
17060;BME280;8646;49.716;9.266;2023-03-18T09:14:50;99926.66;;;13.64;69.84
17060;BME280;8646;49.716;9.266;2023-03-18T09:17:53;99919.91;;;13.85;69.14
17060;BME280;8646;49.716;9.266;2023-03-18T09:21:12;99916.03;;;14.18;68.75
17060;BME280;8646;49.716;9.266;2023-03-18T09:24:16;99912.53;;;14.44;67.22
17060;BME280;8646;49.716;9.266;2023-03-18T09:27:19;99915.97;;;14.74;66.86
17060;BME280;8646;49.716;9.266;2023-03-18T09:30:24;99920.50;;;15.15;66.80
17060;BME280;8646;49.716;9.266;2023-03-18T09:33:31;99916.94;;;15.54;63.82
17060;BME280;8646;49.716;9.266;2023-03-18T09:36:34;99905.59;;;15.98;62.25
17060;BME280;8646;49.716;9.266;2023-03-18T09:39:39;99901.31;;;16.45;62.03
17060;BME280;8646;49.716;9.266;2023-03-18T09:42:51;99891.38;;;16.80;59.43
17060;BME280;8646;49.716;9.266;2023-03-18T09:46:05;99876.78;;;16.92;54.32
17060;BME280;8646;49.716;9.266;2023-03-18T09:49:22;99859.13;;;16.85;48.54
17060;BME280;8646;49.716;9.266;2023-03-18T09:52:38;99872.25;;;16.80;51.24
17060;BME280;8646;49.716;9.266;2023-03-18T09:55:51;99855.81;;;16.56;51.83
17060;BME280;8646;49.716;9.266;2023-03-18T09:59:00;99885.84;;;16.69;52.69
17060;BME280;8646;49.716;9.266;2023-03-18T10:02:17;99886.28;;;16.63;52.34
17060;BME280;8646;49.716;9.266;2023-03-18T10:05:24;99887.31;;;16.62;52.61
17060;BME280;8646;49.716;9.266;2023-03-18T10:08:40;99875.56;;;16.60;51.58
17060;BME280;8646;49.716;9.266;2023-03-18T10:11:49;99877.34;;;16.61;51.41
17060;BME280;8646;49.716;9.266;2023-03-18T10:15:00;99872.78;;;16.61;49.97
17060;BME280;8646;49.716;9.266;2023-03-18T10:18:11;99865.97;;;16.67;49.88
17060;BME280;8646;49.716;9.266;2023-03-18T10:21:20;99862.66;;;16.74;49.93
17060;BME280;8646;49.716;9.266;2023-03-18T10:24:55;99870.38;;;16.81;49.79
17060;BME280;8646;49.716;9.266;2023-03-18T10:28:21;99864.44;;;16.87;49.21
17060;BME280;8646;49.716;9.266;2023-03-18T10:31:35;99860.41;;;16.92;49.42
17060;BME280;8646;49.716;9.266;2023-03-18T10:34:53;99858.94;;;16.99;47.85
17060;BME280;8646;49.716;9.266;2023-03-18T10:38:13;99855.97;;;17.02;46.30
17060;BME280;8646;49.716;9.266;2023-03-18T10:41:23;99850.91;;;17.09;48.17
17060;BME280;8646;49.716;9.266;2023-03-18T10:44:39;99849.94;;;17.21;47.97
17060;BME280;8646;49.716;9.266;2023-03-18T10:47:45;99852.72;;;17.32;47.46
17060;BME280;8646;49.716;9.266;2023-03-18T10:50:55;99850.38;;;17.39;47.09
17060;BME280;8646;49.716;9.266;2023-03-18T10:54:09;99847.44;;;17.53;46.97
17060;BME280;8646;49.716;9.266;2023-03-18T10:57:14;99848.75;;;17.71;46.87
17060;BME280;8646;49.716;9.266;2023-03-18T11:00:26;99846.75;;;17.84;46.78
17060;BME280;8646;49.716;9.266;2023-03-18T11:03:32;99837.56;;;17.74;47.28
17060;BME280;8646;49.716;9.266;2023-03-18T11:06:40;99837.47;;;17.52;45.34
17060;BME280;8646;49.716;9.266;2023-03-18T11:09:45;99830.47;;;17.37;45.13
17060;BME280;8646;49.716;9.266;2023-03-18T11:12:48;99832.50;;;17.35;46.00
17060;BME280;8646;49.716;9.266;2023-03-18T11:15:54;99829.75;;;17.35;45.86
17060;BME280;8646;49.716;9.266;2023-03-18T11:19:19;99829.53;;;17.49;45.81
17060;BME280;8646;49.716;9.266;2023-03-18T11:22:26;99814.28;;;17.69;45.38
17060;BME280;8646;49.716;9.266;2023-03-18T11:25:29;99824.88;;;17.96;44.64
17060;BME280;8646;49.716;9.266;2023-03-18T11:28:40;99821.13;;;18.19;44.41
17060;BME280;8646;49.716;9.266;2023-03-18T11:31:52;99816.66;;;18.29;44.04
17060;BME280;8646;49.716;9.266;2023-03-18T11:35:00;99822.72;;;18.44;44.82
17060;BME280;8646;49.716;9.266;2023-03-18T11:38:03;99815.50;;;18.54;45.07
17060;BME280;8646;49.716;9.266;2023-03-18T11:41:10;99816.56;;;18.74;44.64
17060;BME280;8646;49.716;9.266;2023-03-18T11:44:16;99810.03;;;18.97;44.62
17060;BME280;8646;49.716;9.266;2023-03-18T11:47:22;99809.31;;;19.16;44.99
17060;BME280;8646;49.716;9.266;2023-03-18T11:50:36;99802.16;;;19.24;42.29
17060;BME280;8646;49.716;9.266;2023-03-18T11:53:53;99792.31;;;19.01;41.94
17060;BME280;8646;49.716;9.266;2023-03-18T11:57:07;99791.19;;;19.03;42.25
17060;BME280;8646;49.716;9.266;2023-03-18T12:00:19;99790.53;;;19.11;42.74
17060;BME280;8646;49.716;9.266;2023-03-18T12:03:51;99787.25;;;19.17;42.94
17060;BME280;8646;49.716;9.266;2023-03-18T12:07:25;99780.09;;;19.26;42.98
17060;BME280;8646;49.716;9.266;2023-03-18T12:10:43;99780.72;;;19.29;42.48
17060;BME280;8646;49.716;9.266;2023-03-18T12:14:03;99770.25;;;19.23;41.57
17060;BME280;8646;49.716;9.266;2023-03-18T12:17:23;99772.28;;;19.21;42.14
17060;BME280;8646;49.716;9.266;2023-03-18T12:20:47;99768.56;;;19.32;41.98
17060;BME280;8646;49.716;9.266;2023-03-18T12:24:02;99768.13;;;19.48;42.04
17060;BME280;8646;49.716;9.266;2023-03-18T12:27:16;99766.75;;;19.53;41.48
17060;BME280;8646;49.716;9.266;2023-03-18T12:30:54;99764.19;;;19.61;42.09
17060;BME280;8646;49.716;9.266;2023-03-18T12:34:01;99768.00;;;19.70;42.13
17060;BME280;8646;49.716;9.266;2023-03-18T12:37:21;99763.38;;;19.80;42.52
17060;BME280;8646;49.716;9.266;2023-03-18T12:40:38;99757.91;;;19.80;42.14
17060;BME280;8646;49.716;9.266;2023-03-18T12:44:05;99757.72;;;19.72;41.75
17060;BME280;8646;49.716;9.266;2023-03-18T12:47:16;99757.31;;;19.76;42.10
17060;BME280;8646;49.716;9.266;2023-03-18T12:50:23;99752.53;;;19.69;41.71
17060;BME280;8646;49.716;9.266;2023-03-18T12:53:40;99748.66;;;19.51;41.69
17060;BME280;8646;49.716;9.266;2023-03-18T12:56:47;99748.31;;;19.23;41.87
17060;BME280;8646;49.716;9.266;2023-03-18T12:59:58;99742.03;;;19.12;42.30
17060;BME280;8646;49.716;9.266;2023-03-18T13:03:15;99744.84;;;19.21;42.48
17060;BME280;8646;49.716;9.266;2023-03-18T13:06:28;99740.19;;;19.22;42.64
17060;BME280;8646;49.716;9.266;2023-03-18T13:09:35;99731.19;;;19.52;41.33
17060;BME280;8646;49.716;9.266;2023-03-18T13:12:42;99728.91;;;19.57;40.92
17060;BME280;8646;49.716;9.266;2023-03-18T13:15:49;99731.56;;;19.68;41.24
17060;BME280;8646;49.716;9.266;2023-03-18T13:18:55;99733.88;;;19.72;41.20
17060;BME280;8646;49.716;9.266;2023-03-18T13:22:05;99728.88;;;19.77;41.80
17060;BME280;8646;49.716;9.266;2023-03-18T13:25:22;99729.75;;;19.78;42.07
17060;BME280;8646;49.716;9.266;2023-03-18T13:31:53;99725.44;;;19.85;41.70
17060;BME280;8646;49.716;9.266;2023-03-18T13:35:08;99722.13;;;19.91;41.71
17060;BME280;8646;49.716;9.266;2023-03-18T13:38:41;99717.84;;;20.08;41.59
17060;BME280;8646;49.716;9.266;2023-03-18T13:45:27;99713.50;;;20.05;41.37
17060;BME280;8646;49.716;9.266;2023-03-18T13:48:33;99718.75;;;20.18;40.74
17060;BME280;8646;49.716;9.266;2023-03-18T13:51:52;99691.25;;;20.28;39.98
17060;BME280;8646;49.716;9.266;2023-03-18T13:55:25;99708.97;;;20.35;39.78
17060;BME280;8646;49.716;9.266;2023-03-18T13:58:33;99704.91;;;20.39;40.22
17060;BME280;8646;49.716;9.266;2023-03-18T14:01:57;99701.44;;;20.37;39.44
17060;BME280;8646;49.716;9.266;2023-03-18T14:05:01;99706.31;;;20.24;40.46
17060;BME280;8646;49.716;9.266;2023-03-18T14:11:46;99706.56;;;20.11;41.12
17060;BME280;8646;49.716;9.266;2023-03-18T14:14:57;99700.09;;;20.22;41.08
17060;BME280;8646;49.716;9.266;2023-03-18T14:18:20;99704.00;;;20.29;41.47
17060;BME280;8646;49.716;9.266;2023-03-18T14:21:29;99705.19;;;20.36;41.75
17060;BME280;8646;49.716;9.266;2023-03-18T14:24:33;99707.53;;;20.40;41.39
17060;BME280;8646;49.716;9.266;2023-03-18T14:27:44;99694.94;;;20.47;40.96
17060;BME280;8646;49.716;9.266;2023-03-18T14:30:57;99696.53;;;20.60;41.21
17060;BME280;8646;49.716;9.266;2023-03-18T14:34:14;99687.00;;;20.83;40.68
17060;BME280;8646;49.716;9.266;2023-03-18T14:37:25;99685.94;;;21.13;39.76
17060;BME280;8646;49.716;9.266;2023-03-18T14:40:34;99678.81;;;21.39;39.58
17060;BME280;8646;49.716;9.266;2023-03-18T14:43:41;99679.94;;;21.56;39.18
17060;BME280;8646;49.716;9.266;2023-03-18T14:46:58;99667.44;;;21.61;38.75
17060;BME280;8646;49.716;9.266;2023-03-18T14:50:04;99674.56;;;21.54;38.55
17060;BME280;8646;49.716;9.266;2023-03-18T14:53:12;99679.94;;;21.46;38.45
17060;BME280;8646;49.716;9.266;2023-03-18T14:56:29;99682.84;;;21.45;38.49
17060;BME280;8646;49.716;9.266;2023-03-18T14:59:32;99678.22;;;21.45;38.51
17060;BME280;8646;49.716;9.266;2023-03-18T15:02:37;99676.47;;;21.44;38.70
17060;BME280;8646;49.716;9.266;2023-03-18T15:05:42;99678.09;;;21.37;38.28
17060;BME280;8646;49.716;9.266;2023-03-18T15:08:48;99669.75;;;21.19;38.27
17060;BME280;8646;49.716;9.266;2023-03-18T15:11:52;99675.09;;;21.02;38.20
17060;BME280;8646;49.716;9.266;2023-03-18T15:14:55;99683.81;;;20.87;38.57
17060;BME280;8646;49.716;9.266;2023-03-18T15:18:01;99651.72;;;20.49;38.81
17060;BME280;8646;49.716;9.266;2023-03-18T15:21:08;99684.09;;;20.46;39.40
17060;BME280;8646;49.716;9.266;2023-03-18T15:24:16;99696.75;;;20.28;39.87
17060;BME280;8646;49.716;9.266;2023-03-18T15:27:20;99689.66;;;20.15;40.17
17060;BME280;8646;49.716;9.266;2023-03-18T15:30:25;99691.97;;;20.10;40.28
17060;BME280;8646;49.716;9.266;2023-03-18T15:33:34;99691.81;;;20.02;40.26
17060;BME280;8646;49.716;9.266;2023-03-18T15:36:40;99697.88;;;20.06;40.42
17060;BME280;8646;49.716;9.266;2023-03-18T15:39:43;99697.75;;;20.07;40.42
17060;BME280;8646;49.716;9.266;2023-03-18T15:42:46;99704.25;;;20.06;40.85
17060;BME280;8646;49.716;9.266;2023-03-18T15:45:52;99701.50;;;20.06;40.72
17060;BME280;8646;49.716;9.266;2023-03-18T15:48:59;99702.06;;;20.00;40.91
17060;BME280;8646;49.716;9.266;2023-03-18T15:52:07;99702.63;;;19.94;40.96
17060;BME280;8646;49.716;9.266;2023-03-18T15:55:25;99706.22;;;19.85;41.13
17060;BME280;8646;49.716;9.266;2023-03-18T15:58:34;99699.97;;;19.83;41.32
17060;BME280;8646;49.716;9.266;2023-03-18T16:01:38;99676.50;;;19.60;41.14
17060;BME280;8646;49.716;9.266;2023-03-18T16:04:43;99706.25;;;19.64;41.45
17060;BME280;8646;49.716;9.266;2023-03-18T16:07:47;99701.31;;;19.58;41.50
17060;BME280;8646;49.716;9.266;2023-03-18T16:10:52;99700.72;;;19.55;41.25
17060;BME280;8646;49.716;9.266;2023-03-18T16:13:57;99702.34;;;19.57;41.50
17060;BME280;8646;49.716;9.266;2023-03-18T16:17:00;99701.19;;;19.60;41.07
17060;BME280;8646;49.716;9.266;2023-03-18T16:20:12;99706.06;;;19.56;41.24
17060;BME280;8646;49.716;9.266;2023-03-18T16:23:19;99693.19;;;19.47;41.53
17060;BME280;8646;49.716;9.266;2023-03-18T16:26:22;99704.81;;;19.39;41.32
17060;BME280;8646;49.716;9.266;2023-03-18T16:29:30;99717.19;;;19.34;41.66
17060;BME280;8646;49.716;9.266;2023-03-18T16:32:33;99715.88;;;19.28;41.83
17060;BME280;8646;49.716;9.266;2023-03-18T16:35:37;99714.81;;;19.20;41.70
17060;BME280;8646;49.716;9.266;2023-03-18T16:38:40;99716.88;;;19.06;41.83
17060;BME280;8646;49.716;9.266;2023-03-18T16:41:43;99717.34;;;18.91;42.28
17060;BME280;8646;49.716;9.266;2023-03-18T16:44:50;99722.28;;;18.76;42.39
17060;BME280;8646;49.716;9.266;2023-03-18T16:47:56;99720.72;;;18.62;42.71
17060;BME280;8646;49.716;9.266;2023-03-18T16:51:01;99723.59;;;18.50;43.31
17060;BME280;8646;49.716;9.266;2023-03-18T16:54:13;99727.38;;;18.38;43.56
17060;BME280;8646;49.716;9.266;2023-03-18T16:57:20;99727.28;;;18.28;43.82
17060;BME280;8646;49.716;9.266;2023-03-18T17:00:25;99730.31;;;18.14;44.47
17060;BME280;8646;49.716;9.266;2023-03-18T17:03:34;99744.50;;;17.97;45.15